Kettle, Kentucky
Current Conditions -  °F | °C
As of 7:56 AM on Saturday 22 Nov 2014 (Local Time) from KEKQ Reporting Station
Few Clouds Few Clouds  
Wind Chill: 51°   Ceiling: Unl
Heat Index: 51°   Visibility: 10mi
Dew Point: 27°   Wind: 10mph
Humidity: 40%   Direction: 190°S
Pressure: 30.4"   Gusts: NA
Location:  36.7332°N, 85.3312°W
Report Text: KEKQ 221356Z AUTO 19009KT 10SM FEW090 11/M03 A3040 RMK AO2 T01051027 SLP303
Loading
Personal Weather Stations






























Interactive Weather Map New forecast layout! Learn more

10-Day Weather Forecast

Advertisements
Track Severe Weather on mobile